Flight Track Log - Related Links

Times and Time Zones

All times are in EST time to prevent confusion due to time zone crossing. See the EJA122 flight status page for this flight to view local times or setup timezone preferences in your user account.

Time Position Orientation Groundspeed Altitude Reporting Facility
EST Latitude Longitude Course Direction KTS MPH feet Rate Location/Type
Tue 07:35:35 AM 36.8806 -76.2203 217° Southwest 158 182 900  Level Washington Center
Tue 07:36:08 AM 36.8531 -76.2461 217° Southwest 216 249 2,800 3,360 Climbing Washington Center
Tue 07:36:50 AM 36.8550 -76.2825 274° West 219 252 5,100 3,240 Climbing Washington Center
Tue 07:37:48 AM 36.8858 -76.3475 301° West 214 246 8,200 2,924 Climbing Washington Center
Tue 07:38:49 AM 36.9272 -76.4206 305° West 231 266 10,900 2,529 Climbing Washington Center
Tue 07:39:49 AM 36.9725 -76.4967 307° West 253 291 13,300 2,370 Climbing Washington Center
Tue 07:40:48 AM 37.0200 -76.5778 306° West 275 316 15,600 2,250 Climbing Washington Center
Tue 07:41:49 AM 37.0650 -76.6564 306° West 280 322 17,800 1,918 Climbing Washington Center
Tue 07:42:50 AM 37.1122 -76.7378 306° West 285 328 19,500 1,627 Climbing Washington Center
Tue 07:43:47 AM 37.1617 -76.8219 306° West 290 334 21,000 756 Climbing Washington Center
Tue 07:44:49 AM 37.2297 -76.9014 317° Northwest 299 344 21,000 293 Level Washington Center
Tue 07:45:50 AM 37.3397 -76.9292 349° North 344 396 21,600 645 Climbing Washington Center
Tue 07:46:50 AM 37.4697 -76.8844 15° North 396 456 22,300 661 Climbing Washington Center
Tue 07:47:48 AM 37.5786 -76.8444 16° North 424 488 22,900 706 Climbing Washington Center
Tue 07:48:49 AM 37.7125 -76.7967 16° North 444 511 23,700 694 Climbing Washington Center
Tue 07:49:49 AM 37.8361 -76.7539 15° North 449 517 24,300 645 Climbing Washington Center
Tue 07:50:50 AM 37.9594 -76.7136 14° North 454 522 25,000 353 Climbing Washington Center
Tue 07:51:48 AM 38.0831 -76.6550 20° North 459 528 25,000  Level Washington Center
Tue 07:52:48 AM 38.1883 -76.5375 41° Northeast 474 545 25,000 347 Level Washington Center
Tue 07:53:49 AM 38.2850 -76.4064 47° Northeast 491 565 25,700 689 Climbing Washington Center
Tue 07:54:50 AM 38.3983 -76.2992 37° Northeast 496 571 26,400 763 Climbing Washington Center
Tue 07:55:47 AM 38.5136 -76.1939 36° Northeast 501 577 27,200 458 Climbing Washington Center
Tue 07:56:48 AM 38.6203 -76.0992 35° Northeast 506 582 27,300 -99 Climbing Washington Center
Tue 07:57:48 AM 38.7333 -75.9908 37° Northeast 506 582 27,000 -149 Descending Washington Center
Tue 07:58:49 AM 38.8483 -75.8794 37° Northeast 506 582 27,000  Level Washington Center
Tue 07:59:49 AM 38.9675 -75.7706 35° Northeast 512 589 27,000  Level Washington Center
Tue 08:00:48 AM 39.0842 -75.6583 37° Northeast 518 596 27,000  Level Washington Center
Tue 08:01:48 AM 39.2008 -75.5486 36° Northeast 518 596 27,000  Level Washington Center
Tue 08:02:50 AM 39.3197 -75.4442 34° Northeast 518 596 27,000 -300 Level Washington Center
Tue 08:03:48 AM 39.4361 -75.3364 36° Northeast 518 596 26,400 -1,729 Descending Washington Center
Tue 08:04:48 AM 39.5525 -75.2308 35° Northeast 513 590 23,600 -2,777 Descending Washington Center
Tue 08:05:49 AM 39.6689 -75.1225 36° Northeast 503 579 20,800 -2,529 Descending Washington Center
Tue 08:06:49 AM 39.7622 -75.0408 34° Northeast 424 488 18,500 -2,067 Descending Washington Center
Tue 08:07:48 AM 39.8494 -74.9700 32° Northeast 376 433 16,700 -1,866 Descending Washington Center
Tue 08:08:48 AM 39.9261 -74.8933 37° Northeast 349 402 14,800 -1,785 Descending Washington Center
Tue 08:09:49 AM 39.9858 -74.8089 47° Northeast 330 380 13,100 -1,721 Descending Washington Center
Tue 08:10:50 AM 40.0478 -74.7189 48° Northeast 325 374 11,300 -1,537 Descending Washington Center
Tue 08:11:50 AM 40.1097 -74.6311 47° Northeast 325 374 10,000 -712 Descending Washington Center
Tue 08:12:48 AM 40.1653 -74.5492 48° Northeast 314 361 9,900 -50 Descending Washington Center
Tue 08:13:49 AM 40.2125 -74.4806 48° Northeast 283 326 9,900  Level Washington Center
Tue 08:14:49 AM 40.1908 -74.4075 111° Southeast 194 223 9,900  Level Washington Center
Tue 08:15:50 AM 40.1519 -74.4542 223° Southwest 69 79 9,900  Level Washington Center
Tue 08:16:48 AM 40.1233 -74.5144 238° Southwest 118 136 9,900  Level Washington Center
Tue 08:17:49 AM 40.0967 -74.5772 241° Southwest 167 192 9,900  Level Washington Center
Tue 08:18:50 AM 40.1408 -74.6119 329° Northwest 146 168 9,900  Level Washington Center
Tue 08:19:50 AM 40.1839 -74.5325 55° Northeast 119 137 9,900  Level Washington Center
Tue 08:20:47 AM 40.2142 -74.4450 66° East 206 237 9,900  Level Washington Center
Tue 08:21:49 AM 40.1639 -74.4214 160° South 131 151 9,900 61 Level Washington Center
Tue 08:22:26 AM 40.1500 -74.4667 248° West 186 214 10,000 62 Climbing New York TRACON
Tue 08:23:26 AM 40.1167 -74.5167 229° Southwest 194 223 10,000  Level New York TRACON
Tue 08:24:20 AM 40.1000 -74.5667 246° West 195 224 10,000 -53 Level New York TRACON
Tue 08:25:20 AM 40.1500 -74.5833 346° North 276 318 9,900 -750 Descending New York TRACON
Tue 08:26:20 AM 40.2000 -74.5000 52° Northeast 304 350 8,500 -950 Descending New York TRACON
Tue 08:27:20 AM 40.2667 -74.4333 37° Northeast 294 338 8,000 -368 Descending New York TRACON
Tue 08:28:14 AM 40.3167 -74.3667 45° Northeast 297 342 7,800 -500 Descending New York TRACON
Tue 08:29:20 AM 40.3833 -74.2667 49° Northeast 297 342 7,000 -381 Descending New York TRACON
Tue 08:30:20 AM 40.4333 -74.2000 45° Northeast 300 345 7,000 -53 Level New York TRACON
Tue 08:31:14 AM 40.4833 -74.1333 45° Northeast 264 304 6,900 -900 Descending New York TRACON
Tue 08:32:20 AM 40.5500 -74.0667 37° Northeast 264 304 5,200 -1,150 Descending New York TRACON
Tue 08:33:14 AM 40.6000 -74.0333 27° Northeast 266 306 4,600 -1,167 Descending New York TRACON
Tue 08:34:08 AM 40.6500 -73.9833 37° Northeast 239 275 3,100 -1,421 Descending New York TRACON
Tue 08:35:08 AM 40.7000 -73.9500 27° Northeast 193 222 1,900 -1,050 Descending New York TRACON
Tue 08:36:08 AM 40.7333 -73.9167 37° Northeast 127 146 1,000 -800 Descending New York TRACON
Tue 08:37:08 AM 40.7667 -73.9000 21° North 116 133 300 -700 Descending New York TRACON

Login

Don't have an account? Register now (free) for customized features, flight alerts, and more!